sensor_id;sensor_type;location;lat;lon;timestamp;P1;P2;P0
14880;PMS7003;7533;51.278;12.588;2022-08-23T00:04:18;7.00;7.00;5.75
14880;PMS7003;7533;51.278;12.588;2022-08-23T00:09:32;10.00;7.25;5.00
14880;PMS7003;7533;51.278;12.588;2022-08-23T00:14:38;8.00;7.25;6.00
14880;PMS7003;7533;51.278;12.588;2022-08-23T00:19:45;10.00;9.00;6.00
14880;PMS7003;7533;51.278;12.588;2022-08-23T00:24:49;8.00;7.75;5.50
14880;PMS7003;7533;51.278;12.588;2022-08-23T00:29:53;8.50;8.50;6.00
14880;PMS7003;7533;51.278;12.588;2022-08-23T00:34:57;9.25;9.25;5.50
14880;PMS7003;7533;51.278;12.588;2022-08-23T00:40:01;10.75;9.25;6.00
14880;PMS7003;7533;51.278;12.588;2022-08-23T00:45:07;9.00;8.75;6.00
14880;PMS7003;7533;51.278;12.588;2022-08-23T00:50:33;10.00;8.25;5.25
14880;PMS7003;7533;51.278;12.588;2022-08-23T00:55:43;7.50;7.25;5.75
14880;PMS7003;7533;51.278;12.588;2022-08-23T01:00:49;8.75;8.50;5.75
14880;PMS7003;7533;51.278;12.588;2022-08-23T01:05:55;7.00;7.00;5.50
14880;PMS7003;7533;51.278;12.588;2022-08-23T01:11:04;9.25;7.00;4.25
14880;PMS7003;7533;51.278;12.588;2022-08-23T01:16:12;6.50;6.50;5.00
14880;PMS7003;7533;51.278;12.588;2022-08-23T01:21:20;8.00;8.00;5.25
14880;PMS7003;7533;51.278;12.588;2022-08-23T01:26:30;9.75;8.75;6.00
14880;PMS7003;7533;51.278;12.588;2022-08-23T01:31:35;8.50;7.50;4.50
14880;PMS7003;7533;51.278;12.588;2022-08-23T01:36:38;10.00;8.00;5.50
14880;PMS7003;7533;51.278;12.588;2022-08-23T01:41:45;6.50;6.50;5.00
14880;PMS7003;7533;51.278;12.588;2022-08-23T01:46:48;8.50;8.50;5.75
14880;PMS7003;7533;51.278;12.588;2022-08-23T01:51:57;6.25;6.25;4.25
14880;PMS7003;7533;51.278;12.588;2022-08-23T01:57:01;7.00;7.00;5.00
14880;PMS7003;7533;51.278;12.588;2022-08-23T02:02:08;7.00;7.00;5.00
14880;PMS7003;7533;51.278;12.588;2022-08-23T02:07:11;8.00;7.25;5.50
14880;PMS7003;7533;51.278;12.588;2022-08-23T02:12:16;9.50;8.00;6.00
14880;PMS7003;7533;51.278;12.588;2022-08-23T02:17:19;7.75;7.75;6.00
14880;PMS7003;7533;51.278;12.588;2022-08-23T02:22:22;7.50;7.00;5.00
14880;PMS7003;7533;51.278;12.588;2022-08-23T02:27:26;9.75;8.50;5.00
14880;PMS7003;7533;51.278;12.588;2022-08-23T02:32:29;8.00;8.00;5.75
14880;PMS7003;7533;51.278;12.588;2022-08-23T02:37:33;7.75;7.75;6.00
14880;PMS7003;7533;51.278;12.588;2022-08-23T02:42:38;8.00;7.50;5.00
14880;PMS7003;7533;51.278;12.588;2022-08-23T02:47:43;10.00;9.00;6.00
14880;PMS7003;7533;51.278;12.588;2022-08-23T02:52:52;11.50;10.75;7.00
14880;PMS7003;7533;51.278;12.588;2022-08-23T02:57:57;9.25;9.25;6.75
14880;PMS7003;7533;51.278;12.588;2022-08-23T03:03:01;8.50;7.00;6.00
14880;PMS7003;7533;51.278;12.588;2022-08-23T03:08:03;8.50;8.50;6.00
14880;PMS7003;7533;51.278;12.588;2022-08-23T03:13:16;8.25;7.00;5.00
14880;PMS7003;7533;51.278;12.588;2022-08-23T03:18:22;10.00;7.50;6.00
14880;PMS7003;7533;51.278;12.588;2022-08-23T03:23:25;8.50;8.50;5.50
14880;PMS7003;7533;51.278;12.588;2022-08-23T03:28:32;10.50;9.75;6.75
14880;PMS7003;7533;51.278;12.588;2022-08-23T03:33:36;9.25;8.50;6.00
14880;PMS7003;7533;51.278;12.588;2022-08-23T03:38:39;9.75;8.25;6.00
14880;PMS7003;7533;51.278;12.588;2022-08-23T03:43:45;9.75;9.75;7.00
14880;PMS7003;7533;51.278;12.588;2022-08-23T03:48:48;11.00;8.75;5.00
14880;PMS7003;7533;51.278;12.588;2022-08-23T03:53:52;9.00;9.00;5.50
14880;PMS7003;7533;51.278;12.588;2022-08-23T03:58:58;8.75;7.50;5.00
14880;PMS7003;7533;51.278;12.588;2022-08-23T04:04:02;9.00;7.25;6.00
14880;PMS7003;7533;51.278;12.588;2022-08-23T04:09:08;8.25;8.00;5.50
14880;PMS7003;7533;51.278;12.588;2022-08-23T04:14:12;9.50;9.00;7.00
14880;PMS7003;7533;51.278;12.588;2022-08-23T04:19:16;12.50;11.75;7.00
14880;PMS7003;7533;51.278;12.588;2022-08-23T04:24:32;10.50;10.50;8.00
14880;PMS7003;7533;51.278;12.588;2022-08-23T04:29:36;11.75;10.50;8.00
14880;PMS7003;7533;51.278;12.588;2022-08-23T04:34:40;11.75;10.50;6.25
14880;PMS7003;7533;51.278;12.588;2022-08-23T04:39:48;10.00;9.50;7.75
14880;PMS7003;7533;51.278;12.588;2022-08-23T04:45:16;11.00;9.00;6.00
14880;PMS7003;7533;51.278;12.588;2022-08-23T04:50:23;11.25;10.00;7.00
14880;PMS7003;7533;51.278;12.588;2022-08-23T04:55:48;9.00;9.00;6.50
14880;PMS7003;7533;51.278;12.588;2022-08-23T05:00:54;11.50;10.25;6.75
14880;PMS7003;7533;51.278;12.588;2022-08-23T05:06:00;10.50;9.25;6.25
14880;PMS7003;7533;51.278;12.588;2022-08-23T05:11:11;9.25;8.25;7.00
14880;PMS7003;7533;51.278;12.588;2022-08-23T05:16:16;10.00;8.25;6.00
14880;PMS7003;7533;51.278;12.588;2022-08-23T05:21:28;10.25;9.50;7.00
14880;PMS7003;7533;51.278;12.588;2022-08-23T05:26:31;12.50;11.00;8.00
14880;PMS7003;7533;51.278;12.588;2022-08-23T05:31:35;11.50;9.75;8.25
14880;PMS7003;7533;51.278;12.588;2022-08-23T05:36:38;11.75;9.50;7.00
14880;PMS7003;7533;51.278;12.588;2022-08-23T05:42:00;13.50;12.25;9.75
14880;PMS7003;7533;51.278;12.588;2022-08-23T05:47:05;13.00;13.00;9.00
14880;PMS7003;7533;51.278;12.588;2022-08-23T05:52:38;15.50;14.00;10.00
14880;PMS7003;7533;51.278;12.588;2022-08-23T05:57:42;12.75;12.00;8.50
14880;PMS7003;7533;51.278;12.588;2022-08-23T06:02:47;11.75;11.75;8.75
14880;PMS7003;7533;51.278;12.588;2022-08-23T06:07:53;12.25;11.75;8.00
14880;PMS7003;7533;51.278;12.588;2022-08-23T06:12:57;15.25;14.25;11.25
14880;PMS7003;7533;51.278;12.588;2022-08-23T06:18:01;12.75;12.75;8.75
14880;PMS7003;7533;51.278;12.588;2022-08-23T06:23:06;14.00;11.50;9.00
14880;PMS7003;7533;51.278;12.588;2022-08-23T06:28:12;14.50;14.00;10.00
14880;PMS7003;7533;51.278;12.588;2022-08-23T06:33:17;15.00;12.25;9.00
14880;PMS7003;7533;51.278;12.588;2022-08-23T06:38:56;11.75;11.75;9.25
14880;PMS7003;7533;51.278;12.588;2022-08-23T06:44:18;12.50;12.50;8.00
14880;PMS7003;7533;51.278;12.588;2022-08-23T06:49:46;13.00;11.75;8.00
14880;PMS7003;7533;51.278;12.588;2022-08-23T06:55:18;15.00;13.00;9.75
14880;PMS7003;7533;51.278;12.588;2022-08-23T07:00:34;15.50;11.75;8.25
14880;PMS7003;7533;51.278;12.588;2022-08-23T07:05:48;12.50;11.75;9.25
14880;PMS7003;7533;51.278;12.588;2022-08-23T07:10:57;13.25;13.25;8.50
14880;PMS7003;7533;51.278;12.588;2022-08-23T07:16:00;11.50;10.50;7.50
14880;PMS7003;7533;51.278;12.588;2022-08-23T07:21:07;12.50;11.25;7.00
14880;PMS7003;7533;51.278;12.588;2022-08-23T07:26:13;10.50;10.50;7.75
14880;PMS7003;7533;51.278;12.588;2022-08-23T07:31:18;11.50;9.00;6.25
14880;PMS7003;7533;51.278;12.588;2022-08-23T07:36:25;10.00;10.00;7.00
14880;PMS7003;7533;51.278;12.588;2022-08-23T07:41:29;11.00;10.75;7.25
14880;PMS7003;7533;51.278;12.588;2022-08-23T07:46:34;13.00;11.00;8.00
14880;PMS7003;7533;51.278;12.588;2022-08-23T07:51:44;11.75;11.00;7.00
14880;PMS7003;7533;51.278;12.588;2022-08-23T07:56:50;8.50;8.00;5.75
14880;PMS7003;7533;51.278;12.588;2022-08-23T08:02:11;8.00;7.00;5.00
14880;PMS7003;7533;51.278;12.588;2022-08-23T08:07:16;9.25;8.00;5.00
14880;PMS7003;7533;51.278;12.588;2022-08-23T08:12:28;8.75;7.50;5.00
14880;PMS7003;7533;51.278;12.588;2022-08-23T08:17:39;7.00;7.00;4.50
14880;PMS7003;7533;51.278;12.588;2022-08-23T08:23:04;7.00;6.00;4.00
14880;PMS7003;7533;51.278;12.588;2022-08-23T08:28:25;7.00;7.00;4.00
14880;PMS7003;7533;51.278;12.588;2022-08-23T08:33:28;6.50;6.00;4.00
14880;PMS7003;7533;51.278;12.588;2022-08-23T08:38:38;8.00;7.00;5.00
14880;PMS7003;7533;51.278;12.588;2022-08-23T08:43:55;5.25;5.00;4.00
14880;PMS7003;7533;51.278;12.588;2022-08-23T08:49:06;4.00;4.00;3.00
14880;PMS7003;7533;51.278;12.588;2022-08-23T08:54:17;5.75;4.75;3.75
14880;PMS7003;7533;51.278;12.588;2022-08-23T08:59:26;6.00;6.00;3.75
14880;PMS7003;7533;51.278;12.588;2022-08-23T09:04:36;4.50;4.50;3.00
14880;PMS7003;7533;51.278;12.588;2022-08-23T09:10:07;4.00;4.00;3.00
14880;PMS7003;7533;51.278;12.588;2022-08-23T09:15:40;6.00;6.00;3.50
14880;PMS7003;7533;51.278;12.588;2022-08-23T09:20:56;5.25;5.00;3.75
14880;PMS7003;7533;51.278;12.588;2022-08-23T09:26:09;5.75;5.75;4.00
14880;PMS7003;7533;51.278;12.588;2022-08-23T09:31:35;6.00;6.00;3.25
14880;PMS7003;7533;51.278;12.588;2022-08-23T09:36:41;9.25;7.00;4.00
14880;PMS7003;7533;51.278;12.588;2022-08-23T09:41:45;5.50;5.00;3.75
14880;PMS7003;7533;51.278;12.588;2022-08-23T09:46:50;7.50;7.50;4.00
14880;PMS7003;7533;51.278;12.588;2022-08-23T09:52:12;7.25;6.75;4.00
14880;PMS7003;7533;51.278;12.588;2022-08-23T09:57:30;5.00;5.00;4.00
14880;PMS7003;7533;51.278;12.588;2022-08-23T10:02:35;6.25;6.25;4.00
14880;PMS7003;7533;51.278;12.588;2022-08-23T10:07:52;6.00;6.00;4.50
14880;PMS7003;7533;51.278;12.588;2022-08-23T10:12:58;9.75;7.00;5.75
14880;PMS7003;7533;51.278;12.588;2022-08-23T10:18:04;7.00;5.50;4.50
14880;PMS7003;7533;51.278;12.588;2022-08-23T10:23:17;9.25;7.75;5.00
14880;PMS7003;7533;51.278;12.588;2022-08-23T10:28:34;8.00;8.00;5.00
14880;PMS7003;7533;51.278;12.588;2022-08-23T10:34:09;6.75;6.75;5.00
14880;PMS7003;7533;51.278;12.588;2022-08-23T10:39:30;9.25;9.25;6.25
14880;PMS7003;7533;51.278;12.588;2022-08-23T10:44:38;9.00;7.75;6.00
14880;PMS7003;7533;51.278;12.588;2022-08-23T10:49:50;10.25;8.25;5.00
14880;PMS7003;7533;51.278;12.588;2022-08-23T10:54:57;9.75;7.50;6.25
14880;PMS7003;7533;51.278;12.588;2022-08-23T11:00:11;9.75;9.75;6.00
14880;PMS7003;7533;51.278;12.588;2022-08-23T11:05:21;7.00;6.50;4.50
14880;PMS7003;7533;51.278;12.588;2022-08-23T11:10:30;9.00;8.00;6.00
14880;PMS7003;7533;51.278;12.588;2022-08-23T11:16:03;7.75;7.75;5.50
14880;PMS7003;7533;51.278;12.588;2022-08-23T11:27:03;8.75;7.75;5.00
14880;PMS7003;7533;51.278;12.588;2022-08-23T11:32:21;8.75;8.75;6.00
14880;PMS7003;7533;51.278;12.588;2022-08-23T11:37:50;8.00;7.75;5.00
14880;PMS7003;7533;51.278;12.588;2022-08-23T11:43:05;8.50;7.75;6.50
14880;PMS7003;7533;51.278;12.588;2022-08-23T11:48:17;9.00;9.00;7.00
14880;PMS7003;7533;51.278;12.588;2022-08-23T11:53:31;8.75;7.75;6.00
14880;PMS7003;7533;51.278;12.588;2022-08-23T11:58:55;8.00;8.00;4.50
14880;PMS7003;7533;51.278;12.588;2022-08-23T12:04:11;8.25;8.25;4.00
14880;PMS7003;7533;51.278;12.588;2022-08-23T12:09:51;7.00;5.75;4.00
14880;PMS7003;7533;51.278;12.588;2022-08-23T12:14:56;7.00;6.00;4.00
14880;PMS7003;7533;51.278;12.588;2022-08-23T12:20:09;7.50;7.00;4.00
14880;PMS7003;7533;51.278;12.588;2022-08-23T12:25:18;6.75;6.75;5.50
14880;PMS7003;7533;51.278;12.588;2022-08-23T12:30:24;7.00;7.00;5.00
14880;PMS7003;7533;51.278;12.588;2022-08-23T12:35:33;6.00;6.00;4.00
14880;PMS7003;7533;51.278;12.588;2022-08-23T12:40:42;5.00;5.00;4.00
14880;PMS7003;7533;51.278;12.588;2022-08-23T12:45:48;8.50;6.75;4.75
14880;PMS7003;7533;51.278;12.588;2022-08-23T12:50:59;6.00;6.00;4.00
14880;PMS7003;7533;51.278;12.588;2022-08-23T12:56:05;4.75;4.75;3.75
14880;PMS7003;7533;51.278;12.588;2022-08-23T13:01:16;6.50;5.00;4.00
14880;PMS7003;7533;51.278;12.588;2022-08-23T13:06:25;4.75;4.00;3.00
14880;PMS7003;7533;51.278;12.588;2022-08-23T13:11:32;6.25;6.00;4.00
14880;PMS7003;7533;51.278;12.588;2022-08-23T13:16:40;4.25;4.00;3.00
14880;PMS7003;7533;51.278;12.588;2022-08-23T13:21:46;7.00;6.50;4.75
14880;PMS7003;7533;51.278;12.588;2022-08-23T13:27:09;5.75;5.25;3.50
14880;PMS7003;7533;51.278;12.588;2022-08-23T13:32:23;5.75;5.75;3.25
14880;PMS7003;7533;51.278;12.588;2022-08-23T13:37:29;5.25;5.25;4.00
14880;PMS7003;7533;51.278;12.588;2022-08-23T13:42:34;5.75;4.75;3.00
14880;PMS7003;7533;51.278;12.588;2022-08-23T13:47:42;7.50;6.50;3.75
14880;PMS7003;7533;51.278;12.588;2022-08-23T13:52:49;6.00;6.00;3.75
14880;PMS7003;7533;51.278;12.588;2022-08-23T13:58:13;5.00;5.00;2.75
14880;PMS7003;7533;51.278;12.588;2022-08-23T14:03:25;3.75;3.75;2.00
14880;PMS7003;7533;51.278;12.588;2022-08-23T14:08:31;5.75;4.75;3.75
14880;PMS7003;7533;51.278;12.588;2022-08-23T14:13:33;4.75;4.00;3.00
14880;PMS7003;7533;51.278;12.588;2022-08-23T14:18:37;5.00;4.00;3.00
14880;PMS7003;7533;51.278;12.588;2022-08-23T14:24:01;6.50;5.25;3.00
14880;PMS7003;7533;51.278;12.588;2022-08-23T14:29:05;4.00;4.00;2.00
14880;PMS7003;7533;51.278;12.588;2022-08-23T14:34:15;4.50;4.50;3.00
14880;PMS7003;7533;51.278;12.588;2022-08-23T14:39:19;6.00;5.50;3.50
14880;PMS7003;7533;51.278;12.588;2022-08-23T14:44:22;5.50;4.75;3.25
14880;PMS7003;7533;51.278;12.588;2022-08-23T14:49:33;3.75;3.75;2.50
14880;PMS7003;7533;51.278;12.588;2022-08-23T14:54:37;5.25;5.00;2.50
14880;PMS7003;7533;51.278;12.588;2022-08-23T14:59:40;5.00;5.00;3.00
14880;PMS7003;7533;51.278;12.588;2022-08-23T15:04:43;6.50;5.50;3.00
14880;PMS7003;7533;51.278;12.588;2022-08-23T15:09:48;4.25;4.25;3.00
14880;PMS7003;7533;51.278;12.588;2022-08-23T15:14:54;4.00;4.00;2.50
14880;PMS7003;7533;51.278;12.588;2022-08-23T15:19:57;4.25;4.25;3.00
14880;PMS7003;7533;51.278;12.588;2022-08-23T15:25:02;4.50;4.50;3.00
14880;PMS7003;7533;51.278;12.588;2022-08-23T15:30:06;6.25;5.25;3.00
14880;PMS7003;7533;51.278;12.588;2022-08-23T15:35:09;3.00;3.00;2.00
14880;PMS7003;7533;51.278;12.588;2022-08-23T15:40:14;4.50;4.50;3.00
14880;PMS7003;7533;51.278;12.588;2022-08-23T15:45:17;4.25;4.00;2.75
14880;PMS7003;7533;51.278;12.588;2022-08-23T15:50:21;3.50;3.25;2.00
14880;PMS7003;7533;51.278;12.588;2022-08-23T15:55:29;5.50;5.25;3.00
14880;PMS7003;7533;51.278;12.588;2022-08-23T16:00:33;5.75;4.50;3.00
14880;PMS7003;7533;51.278;12.588;2022-08-23T16:05:36;4.00;4.00;2.00
14880;PMS7003;7533;51.278;12.588;2022-08-23T16:10:42;4.00;4.00;2.50
14880;PMS7003;7533;51.278;12.588;2022-08-23T16:15:46;4.50;4.50;3.00
14880;PMS7003;7533;51.278;12.588;2022-08-23T16:20:49;4.75;4.00;3.00
14880;PMS7003;7533;51.278;12.588;2022-08-23T16:25:56;5.00;5.00;3.00
14880;PMS7003;7533;51.278;12.588;2022-08-23T16:31:01;4.00;4.00;3.00
14880;PMS7003;7533;51.278;12.588;2022-08-23T16:36:05;4.50;3.00;2.25
14880;PMS7003;7533;51.278;12.588;2022-08-23T16:41:10;4.75;4.50;2.00
14880;PMS7003;7533;51.278;12.588;2022-08-23T16:46:14;6.50;4.00;3.00
14880;PMS7003;7533;51.278;12.588;2022-08-23T16:51:17;4.25;4.25;2.50
14880;PMS7003;7533;51.278;12.588;2022-08-23T16:56:23;5.50;4.50;3.00
14880;PMS7003;7533;51.278;12.588;2022-08-23T17:01:26;5.00;4.50;2.50
14880;PMS7003;7533;51.278;12.588;2022-08-23T17:06:30;5.75;4.75;2.50
14880;PMS7003;7533;51.278;12.588;2022-08-23T17:11:34;3.50;3.50;2.00
14880;PMS7003;7533;51.278;12.588;2022-08-23T17:16:38;4.25;4.00;2.75
14880;PMS7003;7533;51.278;12.588;2022-08-23T17:21:41;4.00;4.00;2.25
14880;PMS7003;7533;51.278;12.588;2022-08-23T17:26:46;4.50;4.50;2.75
14880;PMS7003;7533;51.278;12.588;2022-08-23T17:31:49;6.00;6.00;3.00
14880;PMS7003;7533;51.278;12.588;2022-08-23T17:36:53;3.25;3.25;2.25
14880;PMS7003;7533;51.278;12.588;2022-08-23T17:41:58;4.75;4.75;3.00
14880;PMS7003;7533;51.278;12.588;2022-08-23T17:47:01;3.75;3.75;2.50
14880;PMS7003;7533;51.278;12.588;2022-08-23T17:52:08;3.75;3.50;2.50
14880;PMS7003;7533;51.278;12.588;2022-08-23T17:57:13;5.25;3.75;3.00
14880;PMS7003;7533;51.278;12.588;2022-08-23T18:02:16;5.50;4.25;3.50
14880;PMS7003;7533;51.278;12.588;2022-08-23T18:07:20;5.25;4.00;2.75
14880;PMS7003;7533;51.278;12.588;2022-08-23T18:12:25;4.00;4.00;3.00
14880;PMS7003;7533;51.278;12.588;2022-08-23T18:17:28;2.25;2.25;2.00
14880;PMS7003;7533;51.278;12.588;2022-08-23T18:22:31;4.50;3.50;2.75
14880;PMS7003;7533;51.278;12.588;2022-08-23T18:27:36;3.50;3.50;2.50
14880;PMS7003;7533;51.278;12.588;2022-08-23T18:32:56;4.00;4.00;2.00
14880;PMS7003;7533;51.278;12.588;2022-08-23T18:37:59;5.00;5.00;4.00
14880;PMS7003;7533;51.278;12.588;2022-08-23T18:43:04;9.50;9.00;6.50
14880;PMS7003;7533;51.278;12.588;2022-08-23T18:48:07;9.00;8.00;5.00
14880;PMS7003;7533;51.278;12.588;2022-08-23T18:53:12;7.50;6.00;3.25
14880;PMS7003;7533;51.278;12.588;2022-08-23T18:58:17;6.25;6.25;4.25
14880;PMS7003;7533;51.278;12.588;2022-08-23T19:03:23;6.75;6.75;4.00
14880;PMS7003;7533;51.278;12.588;2022-08-23T19:08:25;6.50;6.50;5.00
14880;PMS7003;7533;51.278;12.588;2022-08-23T19:13:29;6.50;6.50;4.50
14880;PMS7003;7533;51.278;12.588;2022-08-23T19:18:33;7.00;6.25;4.50
14880;PMS7003;7533;51.278;12.588;2022-08-23T19:23:36;9.50;9.00;5.00
14880;PMS7003;7533;51.278;12.588;2022-08-23T19:28:40;6.25;6.25;4.50
14880;PMS7003;7533;51.278;12.588;2022-08-23T19:33:43;7.00;7.00;4.75
14880;PMS7003;7533;51.278;12.588;2022-08-23T19:38:46;5.25;5.25;3.50
14880;PMS7003;7533;51.278;12.588;2022-08-23T19:43:51;9.50;7.50;5.50
14880;PMS7003;7533;51.278;12.588;2022-08-23T19:48:54;10.00;8.25;6.00
14880;PMS7003;7533;51.278;12.588;2022-08-23T19:53:57;7.25;6.75;5.00
14880;PMS7003;7533;51.278;12.588;2022-08-23T19:59:14;8.00;7.00;5.00
14880;PMS7003;7533;51.278;12.588;2022-08-23T20:04:19;7.00;7.00;5.00
14880;PMS7003;7533;51.278;12.588;2022-08-23T20:09:23;7.75;6.75;5.00
14880;PMS7003;7533;51.278;12.588;2022-08-23T20:14:30;7.25;7.25;5.00
14880;PMS7003;7533;51.278;12.588;2022-08-23T20:19:34;8.00;7.00;5.25
14880;PMS7003;7533;51.278;12.588;2022-08-23T20:24:37;7.75;7.75;6.00
14880;PMS7003;7533;51.278;12.588;2022-08-23T20:29:54;9.00;8.25;6.00
14880;PMS7003;7533;51.278;12.588;2022-08-23T20:34:57;8.25;8.25;5.00
14880;PMS7003;7533;51.278;12.588;2022-08-23T20:40:00;7.75;7.00;5.00
14880;PMS7003;7533;51.278;12.588;2022-08-23T20:45:05;7.50;7.50;5.00
14880;PMS7003;7533;51.278;12.588;2022-08-23T20:50:09;7.25;7.25;5.00
14880;PMS7003;7533;51.278;12.588;2022-08-23T20:55:12;8.00;8.00;6.00
14880;PMS7003;7533;51.278;12.588;2022-08-23T21:00:16;9.75;7.75;5.50
14880;PMS7003;7533;51.278;12.588;2022-08-23T21:05:19;6.25;6.25;4.25
14880;PMS7003;7533;51.278;12.588;2022-08-23T21:10:24;6.50;6.00;4.25
14880;PMS7003;7533;51.278;12.588;2022-08-23T21:15:28;8.25;6.00;4.75
14880;PMS7003;7533;51.278;12.588;2022-08-23T21:20:32;7.50;6.00;4.50
14880;PMS7003;7533;51.278;12.588;2022-08-23T21:25:34;8.50;7.25;5.50
14880;PMS7003;7533;51.278;12.588;2022-08-23T21:30:39;7.25;7.25;5.50
14880;PMS7003;7533;51.278;12.588;2022-08-23T21:35:42;9.00;8.75;5.25
14880;PMS7003;7533;51.278;12.588;2022-08-23T21:40:50;7.50;7.50;4.00
14880;PMS7003;7533;51.278;12.588;2022-08-23T21:45:57;7.75;7.00;5.00
14880;PMS7003;7533;51.278;12.588;2022-08-23T21:51:00;9.25;8.50;5.75
14880;PMS7003;7533;51.278;12.588;2022-08-23T21:56:03;8.50;7.75;5.50
14880;PMS7003;7533;51.278;12.588;2022-08-23T22:01:07;7.75;7.50;5.00
14880;PMS7003;7533;51.278;12.588;2022-08-23T22:06:10;7.00;7.00;5.00
14880;PMS7003;7533;51.278;12.588;2022-08-23T22:11:14;7.00;6.50;5.00
14880;PMS7003;7533;51.278;12.588;2022-08-23T22:16:18;7.25;7.25;5.50
14880;PMS7003;7533;51.278;12.588;2022-08-23T22:21:23;10.25;8.75;5.25
14880;PMS7003;7533;51.278;12.588;2022-08-23T22:26:26;6.75;6.75;5.25
14880;PMS7003;7533;51.278;12.588;2022-08-23T22:31:31;9.00;7.00;4.00
14880;PMS7003;7533;51.278;12.588;2022-08-23T22:36:35;8.00;7.00;4.00
14880;PMS7003;7533;51.278;12.588;2022-08-23T22:41:38;6.50;6.50;5.00
14880;PMS7003;7533;51.278;12.588;2022-08-23T22:46:42;6.25;6.00;4.50
14880;PMS7003;7533;51.278;12.588;2022-08-23T22:51:45;7.25;6.50;4.50
14880;PMS7003;7533;51.278;12.588;2022-08-23T22:56:55;6.00;6.00;5.00
14880;PMS7003;7533;51.278;12.588;2022-08-23T23:02:00;10.25;8.25;6.00
14880;PMS7003;7533;51.278;12.588;2022-08-23T23:07:04;8.00;6.75;4.00
14880;PMS7003;7533;51.278;12.588;2022-08-23T23:12:07;7.25;6.50;4.50
14880;PMS7003;7533;51.278;12.588;2022-08-23T23:17:11;7.50;7.50;5.00
14880;PMS7003;7533;51.278;12.588;2022-08-23T23:22:14;7.50;7.50;4.25
14880;PMS7003;7533;51.278;12.588;2022-08-23T23:27:17;8.50;6.75;5.00
14880;PMS7003;7533;51.278;12.588;2022-08-23T23:32:21;7.50;7.50;5.00
14880;PMS7003;7533;51.278;12.588;2022-08-23T23:37:24;8.75;7.25;5.25
14880;PMS7003;7533;51.278;12.588;2022-08-23T23:42:26;7.00;6.75;5.00
14880;PMS7003;7533;51.278;12.588;2022-08-23T23:47:30;6.75;6.75;5.00
14880;PMS7003;7533;51.278;12.588;2022-08-23T23:52:34;7.50;7.50;4.75
14880;PMS7003;7533;51.278;12.588;2022-08-23T23:57:37;6.50;6.50;5.25
